createdAt,value
2023-12-16T00:01:29.289Z,101892.78
2023-12-16T00:04:32.270Z,101892.00
2023-12-16T00:07:35.614Z,101897.94
2023-12-16T00:10:38.663Z,101898.00
2023-12-16T00:13:41.342Z,101897.22
2023-12-16T00:16:47.272Z,101887.84
2023-12-16T00:19:49.847Z,101895.47
2023-12-16T00:22:52.606Z,101892.03
2023-12-16T00:25:55.072Z,101877.59
2023-12-16T00:28:57.856Z,101885.38
2023-12-16T00:32:00.402Z,101896.34
2023-12-16T00:35:03.794Z,101900.59
2023-12-16T00:38:06.246Z,101903.97
2023-12-16T00:41:09.063Z,101908.19
2023-12-16T00:44:11.464Z,101919.34
2023-12-16T00:47:14.140Z,101923.59
2023-12-16T00:50:16.526Z,101936.31
2023-12-16T00:53:19.197Z,101947.25
2023-12-16T00:56:24.145Z,101951.53
2023-12-16T00:59:27.497Z,101955.00
2023-12-16T01:02:29.905Z,101950.66
2023-12-16T01:05:32.701Z,101954.84
2023-12-16T01:08:35.203Z,101955.84
2023-12-16T01:11:38.045Z,101959.16
2023-12-16T01:14:40.452Z,101966.72
2023-12-16T01:17:43.622Z,101971.84
2023-12-16T01:20:46.318Z,101971.12
2023-12-16T01:23:49.120Z,101965.97
2023-12-16T01:26:51.627Z,101968.50
2023-12-16T01:29:54.393Z,101975.31
2023-12-16T01:32:57.000Z,101965.13
2023-12-16T01:35:59.978Z,101966.81
2023-12-16T01:39:02.503Z,101974.50
2023-12-16T01:42:05.494Z,101964.34
2023-12-16T01:45:08.702Z,101966.09
2023-12-16T01:48:13.892Z,101976.41
2023-12-16T01:51:17.439Z,101975.63
2023-12-16T01:54:21.818Z,101972.19
2023-12-16T01:57:24.623Z,101983.34
2023-12-16T02:00:29.939Z,101985.09
2023-12-16T02:03:33.694Z,101986.00
2023-12-16T02:06:36.349Z,101991.16
2023-12-16T02:09:39.163Z,101993.59
2023-12-16T02:12:41.545Z,102004.78
2023-12-16T02:15:44.304Z,102010.84
2023-12-16T02:18:46.919Z,102020.25
2023-12-16T02:21:49.679Z,102027.16
2023-12-16T02:24:53.570Z,102034.84
2023-12-16T02:27:56.385Z,102045.97
2023-12-16T02:30:58.942Z,102041.72
2023-12-16T02:34:01.790Z,102048.56
2023-12-16T02:37:07.460Z,102046.03
2023-12-16T02:40:10.713Z,102051.16
2023-12-16T02:43:13.299Z,102060.53
2023-12-16T02:46:16.079Z,102052.81
2023-12-16T02:49:18.557Z,102059.66
2023-12-16T02:52:21.432Z,102061.34
2023-12-16T02:55:24.189Z,102062.09
2023-12-16T02:58:27.136Z,102062.09
2023-12-16T03:01:29.883Z,102071.50
2023-12-16T03:04:33.057Z,102074.00
2023-12-16T03:07:35.721Z,102086.84
2023-12-16T03:10:38.698Z,102080.81
2023-12-16T03:13:41.293Z,102078.25
2023-12-16T03:16:44.318Z,102079.06
2023-12-16T03:19:46.967Z,102079.03
2023-12-16T03:22:50.118Z,102066.25
2023-12-16T03:25:52.649Z,102072.22
2023-12-16T03:28:55.373Z,102068.00
2023-12-16T03:31:58.252Z,102064.66
2023-12-16T03:35:00.893Z,102063.69
2023-12-16T03:38:04.233Z,102066.41
2023-12-16T03:41:07.255Z,102065.53
2023-12-16T03:44:09.754Z,102057.06
2023-12-16T03:47:12.528Z,102071.56
2023-12-16T03:50:14.904Z,102076.69
2023-12-16T03:53:17.570Z,102087.84
2023-12-16T03:56:19.965Z,102089.59
2023-12-16T03:59:22.698Z,102096.44
2023-12-16T04:02:25.263Z,102090.47
2023-12-16T04:05:28.058Z,102099.84
2023-12-16T04:08:30.512Z,102083.66
2023-12-16T04:11:33.456Z,102096.47
2023-12-16T04:14:40.171Z,102115.25
2023-12-16T04:17:43.196Z,102103.28
2023-12-16T04:20:45.870Z,102107.56
2023-12-16T04:23:48.778Z,102116.97
2023-12-16T04:26:51.348Z,102113.56
2023-12-16T04:29:54.442Z,102118.66
2023-12-16T04:32:56.969Z,102132.31
2023-12-16T04:35:59.852Z,102139.16
2023-12-16T04:39:02.438Z,102135.75
2023-12-16T04:42:05.331Z,102128.03
2023-12-16T04:45:08.254Z,102134.03
2023-12-16T04:48:11.189Z,102141.66
2023-12-16T04:51:13.637Z,102134.84
2023-12-16T04:54:17.801Z,102129.75
2023-12-16T04:57:20.216Z,102126.28
2023-12-16T05:00:22.926Z,102123.72
2023-12-16T05:03:25.399Z,102113.50
2023-12-16T05:06:28.109Z,102114.34
2023-12-16T05:09:30.550Z,102121.16
2023-12-16T05:12:35.862Z,102124.56
2023-12-16T05:15:39.848Z,102133.94
2023-12-16T05:18:42.671Z,102132.22
2023-12-16T05:21:45.145Z,102145.84
2023-12-16T05:24:49.570Z,102157.78
2023-12-16T05:27:52.068Z,102163.75
2023-12-16T05:30:54.845Z,102162.88
2023-12-16T05:33:57.493Z,102165.44
2023-12-16T05:37:00.443Z,102174.81
2023-12-16T05:40:03.832Z,102177.34
2023-12-16T05:43:07.015Z,102187.62
2023-12-16T05:46:09.621Z,102180.81
2023-12-16T05:49:12.491Z,102176.53
2023-12-16T05:52:15.628Z,102189.31
2023-12-16T05:55:18.482Z,102188.47
2023-12-16T05:58:22.207Z,102178.22
2023-12-16T06:01:25.232Z,102179.09
2023-12-16T06:04:28.289Z,102194.50
2023-12-16T06:07:31.567Z,102190.19
2023-12-16T06:10:34.334Z,102188.50
2023-12-16T06:13:36.832Z,102197.88
2023-12-16T06:16:39.653Z,102214.94
2023-12-16T06:19:42.170Z,102221.75
2023-12-16T06:22:44.934Z,102215.84
2023-12-16T06:25:47.330Z,102226.06
2023-12-16T06:28:50.000Z,102229.44
2023-12-16T06:31:52.400Z,102226.00
2023-12-16T06:34:55.136Z,102245.66
2023-12-16T06:37:57.572Z,102240.53
2023-12-16T06:41:00.218Z,102258.56
2023-12-16T06:44:02.760Z,102268.84
2023-12-16T06:47:05.423Z,102273.16
2023-12-16T06:50:09.568Z,102271.50
2023-12-16T06:53:12.954Z,102264.69
2023-12-16T06:56:15.763Z,102272.38
2023-12-16T06:59:18.745Z,102277.41
2023-12-16T07:02:21.683Z,102277.25
2023-12-16T07:05:24.479Z,102284.03
2023-12-16T07:08:27.156Z,102291.59
2023-12-16T07:11:29.956Z,102295.50
2023-12-16T07:14:34.863Z,102287.53
2023-12-16T07:17:38.245Z,102293.41
2023-12-16T07:20:41.449Z,102297.44
2023-12-16T07:23:44.438Z,102293.34
2023-12-16T07:26:47.052Z,102298.31
2023-12-16T07:29:51.949Z,102293.53
2023-12-16T07:32:54.705Z,102292.06
2023-12-16T07:35:57.944Z,102293.09
2023-12-16T07:39:00.590Z,102294.91
2023-12-16T07:42:04.436Z,102300.09
2023-12-16T07:45:08.381Z,102311.66
2023-12-16T07:48:11.678Z,102302.81
2023-12-16T07:51:18.753Z,102301.53
2023-12-16T07:54:23.706Z,102304.63
2023-12-16T07:57:26.074Z,102310.44
2023-12-16T08:00:28.869Z,102303.28
2023-12-16T08:03:31.598Z,102305.03
2023-12-16T08:06:34.460Z,102305.84
2023-12-16T08:09:37.508Z,102319.06
2023-12-16T08:12:39.877Z,102315.47
2023-12-16T08:15:42.615Z,102322.72
2023-12-16T08:18:45.026Z,102320.06
2023-12-16T08:21:47.703Z,102334.41
2023-12-16T08:24:50.176Z,102329.13
2023-12-16T08:27:52.948Z,102326.97
2023-12-16T08:30:55.709Z,102329.94
2023-12-16T08:33:58.707Z,102327.31
2023-12-16T08:37:01.483Z,102324.72
2023-12-16T08:40:05.566Z,102331.34
2023-12-16T08:43:08.724Z,102328.13
2023-12-16T08:46:13.234Z,102326.47
2023-12-16T08:49:16.258Z,102333.09
2023-12-16T08:52:19.132Z,102327.28
2023-12-16T08:55:23.364Z,102341.84
2023-12-16T08:58:26.181Z,102334.03
2023-12-16T09:01:28.823Z,102332.81
2023-12-16T09:04:31.724Z,102338.50
2023-12-16T09:07:35.201Z,102335.13
2023-12-16T09:10:38.054Z,102333.22
2023-12-16T09:13:40.715Z,102336.13
2023-12-16T09:16:44.258Z,102334.59
2023-12-16T09:19:46.769Z,102345.69
2023-12-16T09:22:49.460Z,102345.97
2023-12-16T09:25:51.864Z,102343.03
2023-12-16T09:28:54.820Z,102350.12
2023-12-16T09:31:57.310Z,102341.66
2023-12-16T09:34:59.998Z,102342.19
2023-12-16T09:38:02.721Z,102339.72
2023-12-16T09:41:05.903Z,102342.97
2023-12-16T09:44:09.628Z,102343.56
2023-12-16T09:47:14.041Z,102335.34
2023-12-16T09:50:16.723Z,102334.16
2023-12-16T09:53:19.389Z,102330.19
2023-12-16T09:56:22.602Z,102321.97
2023-12-16T09:59:27.572Z,102339.31
2023-12-16T10:02:30.265Z,102336.06
2023-12-16T10:05:35.393Z,102330.38
2023-12-16T10:08:39.911Z,102343.59
2023-12-16T10:11:42.965Z,102341.91
2023-12-16T10:14:49.954Z,102334.66
2023-12-16T10:17:53.387Z,102338.66
2023-12-16T10:20:59.272Z,102336.00
2023-12-16T10:24:03.822Z,102330.06
2023-12-16T10:27:08.559Z,102327.31
2023-12-16T10:30:12.938Z,102324.44
2023-12-16T10:33:15.967Z,102327.56
2023-12-16T10:36:19.334Z,102324.06
2023-12-16T10:39:21.812Z,102324.13
2023-12-16T10:42:25.337Z,102320.88
2023-12-16T10:45:27.819Z,102323.75
2023-12-16T10:48:33.966Z,102312.97
2023-12-16T10:51:42.008Z,102307.59
2023-12-16T10:54:48.334Z,102298.59
2023-12-16T10:58:08.628Z,102304.69
2023-12-16T11:01:17.835Z,102318.37
2023-12-16T11:04:25.692Z,102319.31
2023-12-16T11:07:30.416Z,102312.38
2023-12-16T11:10:33.616Z,102315.56
2023-12-16T11:13:36.831Z,102320.81
2023-12-16T11:16:53.379Z,102317.31
2023-12-16T11:20:15.063Z,102314.41
2023-12-16T11:23:18.176Z,102307.66
2023-12-16T11:26:21.209Z,102303.78
2023-12-16T11:29:24.756Z,102303.81
2023-12-16T11:32:28.541Z,102308.19
2023-12-16T11:35:37.293Z,102303.94
2023-12-16T11:38:45.673Z,102297.00
2023-12-16T11:41:50.334Z,102288.84
2023-12-16T11:44:54.833Z,102287.16
2023-12-16T11:47:58.424Z,102294.09
2023-12-16T11:51:01.573Z,102289.94
2023-12-16T11:54:07.433Z,102292.19
2023-12-16T11:57:10.342Z,102284.37
2023-12-16T12:00:13.238Z,102295.97
2023-12-16T12:03:16.044Z,102289.22
2023-12-16T12:06:19.811Z,102282.06
2023-12-16T12:09:22.544Z,102279.81
2023-12-16T12:12:24.891Z,102279.69
2023-12-16T12:15:27.518Z,102265.62
2023-12-16T12:18:30.184Z,102272.34
2023-12-16T12:21:36.420Z,102281.50
2023-12-16T12:24:38.878Z,102263.13
2023-12-16T12:27:42.052Z,102265.47
2023-12-16T12:30:44.643Z,102265.50
2023-12-16T12:33:50.867Z,102258.38
2023-12-16T12:36:57.366Z,102257.00
2023-12-16T12:40:00.390Z,102265.03
2023-12-16T12:43:03.049Z,102257.72
2023-12-16T12:46:11.874Z,102255.75
2023-12-16T12:49:15.328Z,102246.41
2023-12-16T12:52:18.603Z,102242.03
2023-12-16T12:55:21.183Z,102235.09
2023-12-16T12:58:29.189Z,102245.09
2023-12-16T13:01:33.490Z,102242.63
2023-12-16T13:04:47.075Z,102240.41
2023-12-16T13:07:50.481Z,102250.56
2023-12-16T13:10:53.633Z,102256.16
2023-12-16T13:13:56.181Z,102263.84
2023-12-16T13:16:59.807Z,102254.72
2023-12-16T13:20:02.458Z,102270.13
2023-12-16T13:23:05.523Z,102264.72
2023-12-16T13:26:12.019Z,102265.53
2023-12-16T13:29:14.803Z,102271.06
2023-12-16T13:32:17.263Z,102268.62
2023-12-16T13:35:20.294Z,102269.50
2023-12-16T13:38:22.694Z,102261.41
2023-12-16T13:41:25.508Z,102258.28
2023-12-16T13:44:28.177Z,102256.22
2023-12-16T13:47:31.079Z,102257.66
2023-12-16T13:50:33.562Z,102256.03
2023-12-16T13:53:36.252Z,102262.25
2023-12-16T13:56:38.861Z,102268.81
2023-12-16T13:59:42.340Z,102259.38
2023-12-16T14:02:44.826Z,102264.81
2023-12-16T14:05:47.672Z,102268.28
2023-12-16T14:08:50.226Z,102263.00
2023-12-16T14:11:52.950Z,102262.38
2023-12-16T14:14:55.480Z,102256.38
2023-12-16T14:17:58.338Z,102251.84
2023-12-16T14:21:00.879Z,102246.03
2023-12-16T14:24:04.197Z,102250.91
2023-12-16T14:27:06.840Z,102246.97
2023-12-16T14:30:10.031Z,102251.22
2023-12-16T14:33:12.903Z,102249.72
2023-12-16T14:36:15.896Z,102248.50
2023-12-16T14:39:18.438Z,102247.37
2023-12-16T14:42:21.609Z,102247.25
2023-12-16T14:45:24.236Z,102237.59
2023-12-16T14:48:27.122Z,102245.31
2023-12-16T14:51:36.729Z,102235.19
2023-12-16T14:54:39.444Z,102234.75
2023-12-16T14:57:42.025Z,102232.19
2023-12-16T15:00:45.554Z,102236.06
2023-12-16T15:03:48.811Z,102233.66
2023-12-16T15:06:53.948Z,102236.75
2023-12-16T15:09:56.622Z,102236.47
2023-12-16T15:13:07.185Z,102236.69
2023-12-16T15:16:12.049Z,102235.34
2023-12-16T15:19:15.396Z,102241.59
2023-12-16T15:22:17.936Z,102243.47
2023-12-16T15:25:21.205Z,102248.09
2023-12-16T15:28:23.652Z,102241.28
2023-12-16T15:31:26.538Z,102240.59
2023-12-16T15:34:30.229Z,102232.97
2023-12-16T15:37:33.095Z,102229.81
2023-12-16T15:40:35.495Z,102225.78
2023-12-16T15:43:38.584Z,102230.19
2023-12-16T15:46:44.143Z,102230.91
2023-12-16T15:49:47.067Z,102238.94
2023-12-16T15:52:49.571Z,102241.78
2023-12-16T15:55:52.218Z,102251.13
2023-12-16T15:58:54.634Z,102256.38
2023-12-16T16:01:57.295Z,102262.56
2023-12-16T16:05:00.018Z,102256.78
2023-12-16T16:08:04.807Z,102257.69
2023-12-16T16:11:08.088Z,102256.84
2023-12-16T16:14:10.645Z,102261.28
2023-12-16T16:17:14.419Z,102265.62
2023-12-16T16:20:18.107Z,102266.53
2023-12-16T16:23:20.970Z,102266.50
2023-12-16T16:26:25.566Z,102266.63
2023-12-16T16:29:28.340Z,102269.22
2023-12-16T16:32:30.970Z,102274.37
2023-12-16T16:35:33.992Z,102283.06
2023-12-16T16:38:36.976Z,102288.19
2023-12-16T16:41:40.118Z,102283.91
2023-12-16T16:44:42.713Z,102290.78
2023-12-16T16:47:45.897Z,102283.97
2023-12-16T16:50:50.039Z,102286.56
2023-12-16T16:53:52.900Z,102285.69
2023-12-16T16:56:55.675Z,102288.28
2023-12-16T17:00:02.474Z,102289.97
2023-12-16T17:03:05.530Z,102299.41
2023-12-16T17:06:08.385Z,102297.78
2023-12-16T17:09:11.604Z,102298.69
2023-12-16T17:12:14.505Z,102301.28
2023-12-16T17:15:17.233Z,102315.84
2023-12-16T17:18:20.175Z,102316.69
2023-12-16T17:21:22.617Z,102314.16
2023-12-16T17:24:25.257Z,102316.72
2023-12-16T17:27:27.733Z,102312.50
2023-12-16T17:30:30.562Z,102319.34
2023-12-16T17:33:33.265Z,102320.19
2023-12-16T17:36:36.852Z,102323.62
2023-12-16T17:39:40.033Z,102327.91
2023-12-16T17:42:42.936Z,102333.03
2023-12-16T17:45:48.211Z,102342.41
2023-12-16T17:48:51.212Z,102317.66
2023-12-16T17:51:54.411Z,102315.09
2023-12-16T17:54:57.276Z,102315.09
2023-12-16T17:57:59.714Z,102318.47
2023-12-16T18:01:02.457Z,102327.03
2023-12-16T18:04:05.358Z,102330.47
2023-12-16T18:07:07.856Z,102341.56
2023-12-16T18:10:10.906Z,102342.44
2023-12-16T18:13:13.602Z,102339.00
2023-12-16T18:16:16.374Z,102333.84
2023-12-16T18:19:18.839Z,102329.59
2023-12-16T18:22:21.601Z,102338.87
2023-12-16T18:25:25.243Z,102350.06
2023-12-16T18:28:27.934Z,102341.53
2023-12-16T18:31:30.362Z,102338.03
2023-12-16T18:34:33.650Z,102337.25
2023-12-16T18:37:42.166Z,102350.00
2023-12-16T18:40:45.094Z,102354.38
2023-12-16T18:43:50.595Z,102354.38
2023-12-16T18:46:53.232Z,102354.34
2023-12-16T18:49:56.242Z,102363.78
2023-12-16T18:52:58.994Z,102367.16
2023-12-16T18:56:01.878Z,102354.38
2023-12-16T18:59:04.639Z,102364.66
2023-12-16T19:02:07.053Z,102369.78
2023-12-16T19:05:09.818Z,102360.38
2023-12-16T19:08:12.525Z,102356.09
2023-12-16T19:11:15.490Z,102362.09
2023-12-16T19:14:18.019Z,102357.81
2023-12-16T19:17:20.850Z,102364.69
2023-12-16T19:20:23.348Z,102356.97
2023-12-16T19:23:27.633Z,102360.41
2023-12-16T19:26:30.173Z,102374.06
2023-12-16T19:29:33.348Z,102387.75
2023-12-16T19:32:36.877Z,102383.47
2023-12-16T19:35:40.064Z,102388.59
2023-12-16T19:38:42.661Z,102389.44
2023-12-16T19:41:45.477Z,102390.28
2023-12-16T19:44:48.063Z,102388.56
2023-12-16T19:47:50.952Z,102392.00
2023-12-16T19:50:53.394Z,102386.00
2023-12-16T19:53:56.134Z,102388.56
2023-12-16T19:56:58.557Z,102397.13
2023-12-16T20:00:01.303Z,102389.41
2023-12-16T20:03:05.098Z,102397.97
2023-12-16T20:06:08.167Z,102398.81
2023-12-16T20:09:11.276Z,102394.53
2023-12-16T20:12:14.311Z,102388.56
2023-12-16T20:15:17.476Z,102385.19
2023-12-16T20:18:21.749Z,102376.63
2023-12-16T20:21:24.251Z,102388.63
2023-12-16T20:24:27.136Z,102392.00
2023-12-16T20:27:29.761Z,102389.47
2023-12-16T20:30:32.933Z,102386.88
2023-12-16T20:33:36.551Z,102397.16
2023-12-16T20:36:40.141Z,102390.28
2023-12-16T20:40:01.267Z,102393.69
2023-12-16T20:43:05.516Z,102402.25
2023-12-16T20:46:07.884Z,102404.81
2023-12-16T20:49:10.822Z,102396.25
2023-12-16T20:52:13.338Z,102399.66
2023-12-16T20:55:16.786Z,102403.94
2023-12-16T20:58:19.870Z,102402.25
2023-12-16T21:01:22.646Z,102399.66
2023-12-16T21:04:25.311Z,102389.41
2023-12-16T21:07:28.165Z,102394.53
2023-12-16T21:10:30.828Z,102392.84
2023-12-16T21:13:33.740Z,102403.91
2023-12-16T21:16:37.329Z,102400.53
2023-12-16T21:19:40.426Z,102404.78
2023-12-16T21:22:43.106Z,102406.47
2023-12-16T21:25:46.280Z,102406.44
2023-12-16T21:28:48.833Z,102405.63
2023-12-16T21:31:51.610Z,102407.34
2023-12-16T21:34:54.279Z,102403.91
2023-12-16T21:37:57.122Z,102400.50
2023-12-16T21:40:59.469Z,102406.47
2023-12-16T21:44:02.210Z,102415.00
2023-12-16T21:47:04.747Z,102412.47
2023-12-16T21:50:07.819Z,102414.22
2023-12-16T21:53:10.238Z,102411.66
2023-12-16T21:56:12.926Z,102415.94
2023-12-16T21:59:16.008Z,102402.28
2023-12-16T22:02:18.887Z,102404.84
2023-12-16T22:05:21.970Z,102391.16
2023-12-16T22:08:24.474Z,102386.88
2023-12-16T22:11:27.202Z,102379.19
2023-12-16T22:14:29.621Z,102374.03
2023-12-16T22:17:32.585Z,102373.16
2023-12-16T22:20:35.130Z,102374.03
2023-12-16T22:23:38.812Z,102377.44
2023-12-16T22:26:41.585Z,102376.59
2023-12-16T22:29:44.671Z,102375.66
2023-12-16T22:32:47.192Z,102377.38
2023-12-16T22:35:50.055Z,102381.66
2023-12-16T22:38:52.553Z,102387.66
2023-12-16T22:41:55.335Z,102383.41
2023-12-16T22:44:58.199Z,102391.91
2023-12-16T22:48:01.052Z,102391.94
2023-12-16T22:51:04.049Z,102378.28
2023-12-16T22:54:06.839Z,102382.53
2023-12-16T22:57:09.270Z,102385.13
2023-12-16T23:00:31.893Z,102389.37
2023-12-16T23:03:34.748Z,102396.22
2023-12-16T23:06:37.562Z,102387.66
2023-12-16T23:09:40.087Z,102386.81
2023-12-16T23:12:43.281Z,102379.13
2023-12-16T23:15:45.700Z,102380.88
2023-12-16T23:18:48.462Z,102381.72
2023-12-16T23:21:51.824Z,102371.41
2023-12-16T23:24:54.664Z,102362.88
2023-12-16T23:27:57.045Z,102359.47
2023-12-16T23:31:07.373Z,102360.25
2023-12-16T23:34:14.034Z,102356.00
2023-12-16T23:37:16.738Z,102354.28
2023-12-16T23:40:19.172Z,102346.62
2023-12-16T23:43:21.850Z,102344.03
2023-12-16T23:46:24.460Z,102345.72
2023-12-16T23:49:27.267Z,102343.19
2023-12-16T23:52:29.801Z,102344.91
2023-12-16T23:55:32.447Z,102344.87
2023-12-16T23:58:35.179Z,102358.59
